sensor_id;sensor_type;location;lat;lon;timestamp;P1;durP1;ratioP1;P2;durP2;ratioP2
4464;SDS011;2245;48.136;13.428;2022-09-23T00:02:23;11.40;;;5.20;;
4464;SDS011;2245;48.136;13.428;2022-09-23T00:04:54;11.50;;;6.33;;
4464;SDS011;2245;48.136;13.428;2022-09-23T00:07:30;12.30;;;8.13;;
4464;SDS011;2245;48.136;13.428;2022-09-23T00:20:17;12.57;;;7.17;;
4464;SDS011;2245;48.136;13.428;2022-09-23T00:22:48;15.90;;;9.83;;
4464;SDS011;2245;48.136;13.428;2022-09-23T00:25:20;9.00;;;7.10;;
4464;SDS011;2245;48.136;13.428;2022-09-23T00:27:57;17.37;;;10.47;;
4464;SDS011;2245;48.136;13.428;2022-09-23T00:30:29;17.80;;;9.73;;
4464;SDS011;2245;48.136;13.428;2022-09-23T00:32:59;16.40;;;9.83;;
4464;SDS011;2245;48.136;13.428;2022-09-23T00:35:35;16.90;;;9.00;;
4464;SDS011;2245;48.136;13.428;2022-09-23T00:38:05;14.30;;;8.77;;
4464;SDS011;2245;48.136;13.428;2022-09-23T00:40:41;18.00;;;9.03;;
4464;SDS011;2245;48.136;13.428;2022-09-23T00:43:34;12.90;;;8.47;;
4464;SDS011;2245;48.136;13.428;2022-09-23T00:49:33;11.63;;;7.83;;
4464;SDS011;2245;48.136;13.428;2022-09-23T00:54:54;10.03;;;7.00;;
4464;SDS011;2245;48.136;13.428;2022-09-23T00:57:26;11.40;;;7.37;;
4464;SDS011;2245;48.136;13.428;2022-09-23T01:00:07;10.87;;;7.70;;
4464;SDS011;2245;48.136;13.428;2022-09-23T01:28:56;11.00;;;7.03;;
4464;SDS011;2245;48.136;13.428;2022-09-23T01:31:51;9.77;;;6.60;;
4464;SDS011;2245;48.136;13.428;2022-09-23T01:34:31;9.23;;;6.80;;
4464;SDS011;2245;48.136;13.428;2022-09-23T01:37:16;11.90;;;7.07;;
4464;SDS011;2245;48.136;13.428;2022-09-23T01:39:54;12.67;;;7.90;;
4464;SDS011;2245;48.136;13.428;2022-09-23T01:42:30;11.90;;;6.80;;
4464;SDS011;2245;48.136;13.428;2022-09-23T01:45:07;15.73;;;7.33;;
4464;SDS011;2245;48.136;13.428;2022-09-23T01:47:58;18.93;;;8.23;;
4464;SDS011;2245;48.136;13.428;2022-09-23T01:50:38;21.07;;;8.50;;
4464;SDS011;2245;48.136;13.428;2022-09-23T01:53:42;12.03;;;7.00;;
4464;SDS011;2245;48.136;13.428;2022-09-23T01:56:15;13.30;;;7.80;;
4464;SDS011;2245;48.136;13.428;2022-09-23T01:58:47;13.10;;;7.33;;
4464;SDS011;2245;48.136;13.428;2022-09-23T02:01:21;8.83;;;6.83;;
4464;SDS011;2245;48.136;13.428;2022-09-23T02:03:56;9.73;;;6.20;;
4464;SDS011;2245;48.136;13.428;2022-09-23T02:06:30;16.33;;;7.10;;
4464;SDS011;2245;48.136;13.428;2022-09-23T02:09:14;9.53;;;7.87;;
4464;SDS011;2245;48.136;13.428;2022-09-23T02:11:50;10.17;;;7.07;;
4464;SDS011;2245;48.136;13.428;2022-09-23T02:37:46;13.00;;;6.77;;
4464;SDS011;2245;48.136;13.428;2022-09-23T02:40:24;8.07;;;6.50;;
4464;SDS011;2245;48.136;13.428;2022-09-23T02:43:03;10.27;;;7.83;;
4464;SDS011;2245;48.136;13.428;2022-09-23T02:45:33;11.90;;;7.57;;
4464;SDS011;2245;48.136;13.428;2022-09-23T02:48:05;14.60;;;7.37;;
4464;SDS011;2245;48.136;13.428;2022-09-23T02:50:42;12.37;;;6.63;;
4464;SDS011;2245;48.136;13.428;2022-09-23T02:53:14;10.87;;;7.10;;
4464;SDS011;2245;48.136;13.428;2022-09-23T02:59:25;8.80;;;6.67;;
4464;SDS011;2245;48.136;13.428;2022-09-23T03:02:14;8.53;;;6.70;;
4464;SDS011;2245;48.136;13.428;2022-09-23T03:04:52;9.37;;;6.93;;
4464;SDS011;2245;48.136;13.428;2022-09-23T03:07:41;8.70;;;6.77;;
4464;SDS011;2245;48.136;13.428;2022-09-23T03:10:28;8.73;;;6.57;;
4464;SDS011;2245;48.136;13.428;2022-09-23T03:13:02;16.70;;;8.10;;
4464;SDS011;2245;48.136;13.428;2022-09-23T03:15:47;9.10;;;7.13;;
4464;SDS011;2245;48.136;13.428;2022-09-23T03:18:29;23.50;;;12.50;;
4464;SDS011;2245;48.136;13.428;2022-09-23T03:21:02;10.63;;;7.50;;
4464;SDS011;2245;48.136;13.428;2022-09-23T03:23:52;10.23;;;6.27;;
4464;SDS011;2245;48.136;13.428;2022-09-23T03:26:33;8.30;;;6.33;;
4464;SDS011;2245;48.136;13.428;2022-09-23T03:29:04;14.17;;;9.37;;
4464;SDS011;2245;48.136;13.428;2022-09-23T03:31:36;11.23;;;7.10;;
4464;SDS011;2245;48.136;13.428;2022-09-23T03:34:18;8.90;;;6.10;;
4464;SDS011;2245;48.136;13.428;2022-09-23T03:36:51;11.90;;;6.50;;
4464;SDS011;2245;48.136;13.428;2022-09-23T03:39:32;9.10;;;5.97;;
4464;SDS011;2245;48.136;13.428;2022-09-23T03:42:07;9.93;;;7.10;;
4464;SDS011;2245;48.136;13.428;2022-09-23T03:44:36;17.07;;;9.93;;
4464;SDS011;2245;48.136;13.428;2022-09-23T03:47:07;21.83;;;8.50;;
4464;SDS011;2245;48.136;13.428;2022-09-23T03:49:51;10.30;;;7.20;;
4464;SDS011;2245;48.136;13.428;2022-09-23T03:52:20;8.13;;;6.70;;
4464;SDS011;2245;48.136;13.428;2022-09-23T03:54:58;9.23;;;7.30;;
4464;SDS011;2245;48.136;13.428;2022-09-23T03:57:40;11.60;;;6.57;;
4464;SDS011;2245;48.136;13.428;2022-09-23T04:00:13;11.17;;;6.07;;
4464;SDS011;2245;48.136;13.428;2022-09-23T04:02:45;8.53;;;7.13;;
4464;SDS011;2245;48.136;13.428;2022-09-23T04:05:40;9.50;;;6.93;;
4464;SDS011;2245;48.136;13.428;2022-09-23T04:08:19;10.60;;;7.67;;
4464;SDS011;2245;48.136;13.428;2022-09-23T04:17:07;11.50;;;5.67;;
4464;SDS011;2245;48.136;13.428;2022-09-23T04:19:43;10.10;;;6.60;;
4464;SDS011;2245;48.136;13.428;2022-09-23T04:22:11;11.67;;;6.20;;
4464;SDS011;2245;48.136;13.428;2022-09-23T04:24:39;15.93;;;7.40;;
4464;SDS011;2245;48.136;13.428;2022-09-23T04:27:11;11.40;;;7.43;;
4464;SDS011;2245;48.136;13.428;2022-09-23T04:29:42;8.87;;;6.70;;
4464;SDS011;2245;48.136;13.428;2022-09-23T04:32:14;19.53;;;10.10;;
4464;SDS011;2245;48.136;13.428;2022-09-23T04:34:41;16.30;;;8.83;;
4464;SDS011;2245;48.136;13.428;2022-09-23T04:37:11;10.63;;;8.07;;
4464;SDS011;2245;48.136;13.428;2022-09-23T04:39:42;15.63;;;7.87;;
4464;SDS011;2245;48.136;13.428;2022-09-23T04:42:09;16.60;;;8.87;;
4464;SDS011;2245;48.136;13.428;2022-09-23T04:44:36;14.13;;;8.60;;
4464;SDS011;2245;48.136;13.428;2022-09-23T04:47:10;13.57;;;9.53;;
4464;SDS011;2245;48.136;13.428;2022-09-23T04:49:44;12.00;;;9.40;;
4464;SDS011;2245;48.136;13.428;2022-09-23T04:52:14;11.10;;;7.80;;
4464;SDS011;2245;48.136;13.428;2022-09-23T04:54:44;11.33;;;9.10;;
4464;SDS011;2245;48.136;13.428;2022-09-23T04:57:13;16.47;;;10.50;;
4464;SDS011;2245;48.136;13.428;2022-09-23T04:59:41;22.20;;;12.10;;
4464;SDS011;2245;48.136;13.428;2022-09-23T05:08:56;15.47;;;9.83;;
4464;SDS011;2245;48.136;13.428;2022-09-23T05:11:25;33.87;;;16.73;;
4464;SDS011;2245;48.136;13.428;2022-09-23T05:13:53;73.50;;;31.87;;
4464;SDS011;2245;48.136;13.428;2022-09-23T05:16:23;57.70;;;25.73;;
4464;SDS011;2245;48.136;13.428;2022-09-23T05:18:54;76.40;;;33.10;;
4464;SDS011;2245;48.136;13.428;2022-09-23T05:21:22;41.93;;;24.80;;
4464;SDS011;2245;48.136;13.428;2022-09-23T05:23:55;36.43;;;17.90;;
4464;SDS011;2245;48.136;13.428;2022-09-23T05:29:43;23.33;;;11.43;;
4464;SDS011;2245;48.136;13.428;2022-09-23T05:32:11;20.90;;;11.60;;
4464;SDS011;2245;48.136;13.428;2022-09-23T05:34:39;20.60;;;12.13;;
4464;SDS011;2245;48.136;13.428;2022-09-23T05:37:10;29.03;;;10.33;;
4464;SDS011;2245;48.136;13.428;2022-09-23T05:39:41;18.80;;;12.00;;
4464;SDS011;2245;48.136;13.428;2022-09-23T05:42:10;16.77;;;11.50;;
4464;SDS011;2245;48.136;13.428;2022-09-23T05:44:39;50.27;;;17.10;;
4464;SDS011;2245;48.136;13.428;2022-09-23T05:47:07;24.50;;;14.93;;
4464;SDS011;2245;48.136;13.428;2022-09-23T05:49:34;23.83;;;13.83;;
4464;SDS011;2245;48.136;13.428;2022-09-23T05:52:04;21.27;;;13.27;;
4464;SDS011;2245;48.136;13.428;2022-09-23T05:54:43;17.37;;;10.90;;
4464;SDS011;2245;48.136;13.428;2022-09-23T05:57:10;14.50;;;9.90;;
4464;SDS011;2245;48.136;13.428;2022-09-23T05:59:44;13.90;;;10.30;;
4464;SDS011;2245;48.136;13.428;2022-09-23T06:02:12;17.03;;;12.03;;
4464;SDS011;2245;48.136;13.428;2022-09-23T06:04:40;25.33;;;10.33;;
4464;SDS011;2245;48.136;13.428;2022-09-23T06:07:13;17.80;;;11.37;;
4464;SDS011;2245;48.136;13.428;2022-09-23T06:09:40;20.13;;;12.30;;
4464;SDS011;2245;48.136;13.428;2022-09-23T06:12:12;22.13;;;12.00;;
4464;SDS011;2245;48.136;13.428;2022-09-23T06:14:42;18.43;;;10.63;;
4464;SDS011;2245;48.136;13.428;2022-09-23T06:17:10;15.47;;;10.93;;
4464;SDS011;2245;48.136;13.428;2022-09-23T06:19:45;13.90;;;9.90;;
4464;SDS011;2245;48.136;13.428;2022-09-23T06:22:14;17.60;;;9.97;;
4464;SDS011;2245;48.136;13.428;2022-09-23T06:24:43;14.63;;;10.10;;
4464;SDS011;2245;48.136;13.428;2022-09-23T06:27:15;13.83;;;10.73;;
4464;SDS011;2245;48.136;13.428;2022-09-23T06:29:45;17.67;;;10.33;;
4464;SDS011;2245;48.136;13.428;2022-09-23T06:32:19;14.07;;;9.10;;
4464;SDS011;2245;48.136;13.428;2022-09-23T06:35:07;10.00;;;7.80;;
4464;SDS011;2245;48.136;13.428;2022-09-23T06:37:34;24.10;;;16.70;;
4464;SDS011;2245;48.136;13.428;2022-09-23T06:40:04;14.13;;;10.30;;
4464;SDS011;2245;48.136;13.428;2022-09-23T06:42:34;17.57;;;10.03;;
4464;SDS011;2245;48.136;13.428;2022-09-23T06:45:01;26.80;;;11.00;;
4464;SDS011;2245;48.136;13.428;2022-09-23T06:47:30;13.30;;;9.30;;
4464;SDS011;2245;48.136;13.428;2022-09-23T06:50:01;10.90;;;8.50;;
4464;SDS011;2245;48.136;13.428;2022-09-23T06:52:32;12.50;;;8.70;;
4464;SDS011;2245;48.136;13.428;2022-09-23T06:55:03;20.00;;;11.20;;
4464;SDS011;2245;48.136;13.428;2022-09-23T06:57:31;9.73;;;7.40;;
4464;SDS011;2245;48.136;13.428;2022-09-23T07:00:00;9.97;;;8.20;;
4464;SDS011;2245;48.136;13.428;2022-09-23T07:02:39;8.43;;;7.20;;
4464;SDS011;2245;48.136;13.428;2022-09-23T07:05:14;5.67;;;4.80;;
4464;SDS011;2245;48.136;13.428;2022-09-23T07:07:46;8.37;;;5.40;;
4464;SDS011;2245;48.136;13.428;2022-09-23T07:10:23;6.77;;;6.03;;
4464;SDS011;2245;48.136;13.428;2022-09-23T07:13:00;6.83;;;6.07;;
4464;SDS011;2245;48.136;13.428;2022-09-23T07:15:27;7.47;;;5.13;;
4464;SDS011;2245;48.136;13.428;2022-09-23T07:18:11;12.57;;;8.13;;
4464;SDS011;2245;48.136;13.428;2022-09-23T07:20:44;15.53;;;7.77;;
4464;SDS011;2245;48.136;13.428;2022-09-23T07:23:14;14.70;;;6.40;;
4464;SDS011;2245;48.136;13.428;2022-09-23T07:25:42;8.63;;;5.77;;
4464;SDS011;2245;48.136;13.428;2022-09-23T07:28:23;4.73;;;4.23;;
4464;SDS011;2245;48.136;13.428;2022-09-23T07:30:56;5.27;;;2.93;;
4464;SDS011;2245;48.136;13.428;2022-09-23T07:33:31;4.43;;;2.70;;
4464;SDS011;2245;48.136;13.428;2022-09-23T07:36:02;4.67;;;3.00;;
4464;SDS011;2245;48.136;13.428;2022-09-23T07:38:38;5.63;;;4.27;;
4464;SDS011;2245;48.136;13.428;2022-09-23T07:41:11;4.13;;;3.20;;
4464;SDS011;2245;48.136;13.428;2022-09-23T07:43:40;4.50;;;3.80;;
4464;SDS011;2245;48.136;13.428;2022-09-23T07:46:16;15.63;;;6.97;;
4464;SDS011;2245;48.136;13.428;2022-09-23T07:48:43;31.47;;;4.60;;
4464;SDS011;2245;48.136;13.428;2022-09-23T07:51:22;3.33;;;2.93;;
4464;SDS011;2245;48.136;13.428;2022-09-23T07:53:51;3.70;;;3.30;;
4464;SDS011;2245;48.136;13.428;2022-09-23T07:56:23;7.10;;;5.20;;
4464;SDS011;2245;48.136;13.428;2022-09-23T07:59:01;3.40;;;3.17;;
4464;SDS011;2245;48.136;13.428;2022-09-23T08:01:33;6.50;;;3.43;;
4464;SDS011;2245;48.136;13.428;2022-09-23T08:04:01;3.37;;;3.07;;
4464;SDS011;2245;48.136;13.428;2022-09-23T08:06:30;2.80;;;2.50;;
4464;SDS011;2245;48.136;13.428;2022-09-23T08:08:59;3.30;;;3.00;;
4464;SDS011;2245;48.136;13.428;2022-09-23T08:11:28;4.37;;;2.90;;
4464;SDS011;2245;48.136;13.428;2022-09-23T08:13:55;2.70;;;2.50;;
4464;SDS011;2245;48.136;13.428;2022-09-23T08:16:26;5.67;;;3.50;;
4464;SDS011;2245;48.136;13.428;2022-09-23T08:18:54;4.17;;;3.47;;
4464;SDS011;2245;48.136;13.428;2022-09-23T08:21:26;3.93;;;3.50;;
4464;SDS011;2245;48.136;13.428;2022-09-23T08:24:03;6.20;;;4.10;;
4464;SDS011;2245;48.136;13.428;2022-09-23T08:26:30;3.97;;;3.67;;
4464;SDS011;2245;48.136;13.428;2022-09-23T08:28:58;5.40;;;3.83;;
4464;SDS011;2245;48.136;13.428;2022-09-23T08:31:29;3.97;;;3.57;;
4464;SDS011;2245;48.136;13.428;2022-09-23T08:33:58;3.90;;;3.60;;
4464;SDS011;2245;48.136;13.428;2022-09-23T08:36:28;4.27;;;3.43;;
4464;SDS011;2245;48.136;13.428;2022-09-23T08:39:02;3.80;;;3.40;;
4464;SDS011;2245;48.136;13.428;2022-09-23T08:41:42;4.00;;;3.60;;
4464;SDS011;2245;48.136;13.428;2022-09-23T08:44:13;4.17;;;3.70;;
4464;SDS011;2245;48.136;13.428;2022-09-23T08:46:46;3.20;;;2.97;;
4464;SDS011;2245;48.136;13.428;2022-09-23T08:49:34;4.33;;;3.77;;
4464;SDS011;2245;48.136;13.428;2022-09-23T08:52:10;7.60;;;3.83;;
4464;SDS011;2245;48.136;13.428;2022-09-23T08:54:46;4.57;;;4.13;;
4464;SDS011;2245;48.136;13.428;2022-09-23T08:57:16;2.93;;;2.73;;
4464;SDS011;2245;48.136;13.428;2022-09-23T08:59:52;4.37;;;3.27;;
4464;SDS011;2245;48.136;13.428;2022-09-23T09:09:18;5.20;;;4.70;;
4464;SDS011;2245;48.136;13.428;2022-09-23T09:11:50;4.07;;;3.67;;
4464;SDS011;2245;48.136;13.428;2022-09-23T09:14:29;4.77;;;4.27;;
4464;SDS011;2245;48.136;13.428;2022-09-23T09:17:02;4.90;;;4.33;;
4464;SDS011;2245;48.136;13.428;2022-09-23T09:22:42;7.17;;;4.30;;
4464;SDS011;2245;48.136;13.428;2022-09-23T09:25:31;6.07;;;4.30;;
4464;SDS011;2245;48.136;13.428;2022-09-23T09:28:07;4.73;;;4.03;;
4464;SDS011;2245;48.136;13.428;2022-09-23T09:30:41;3.70;;;3.40;;
4464;SDS011;2245;48.136;13.428;2022-09-23T09:33:13;4.57;;;4.00;;
4464;SDS011;2245;48.136;13.428;2022-09-23T09:38:38;3.30;;;3.10;;
4464;SDS011;2245;48.136;13.428;2022-09-23T09:41:15;4.13;;;3.63;;
4464;SDS011;2245;48.136;13.428;2022-09-23T09:43:46;5.47;;;3.70;;
4464;SDS011;2245;48.136;13.428;2022-09-23T09:46:37;8.00;;;2.80;;
4464;SDS011;2245;48.136;13.428;2022-09-23T09:49:25;4.40;;;3.23;;
4464;SDS011;2245;48.136;13.428;2022-09-23T09:52:13;3.10;;;2.90;;
4464;SDS011;2245;48.136;13.428;2022-09-23T09:54:50;3.73;;;3.43;;
4464;SDS011;2245;48.136;13.428;2022-09-23T09:57:35;7.57;;;3.50;;
4464;SDS011;2245;48.136;13.428;2022-09-23T10:00:32;3.33;;;3.03;;
4464;SDS011;2245;48.136;13.428;2022-09-23T10:06:20;9.80;;;4.33;;
4464;SDS011;2245;48.136;13.428;2022-09-23T10:09:14;7.47;;;6.90;;
4464;SDS011;2245;48.136;13.428;2022-09-23T10:12:00;3.93;;;3.50;;
4464;SDS011;2245;48.136;13.428;2022-09-23T10:14:31;2.60;;;2.40;;
4464;SDS011;2245;48.136;13.428;2022-09-23T10:17:10;3.33;;;3.03;;
4464;SDS011;2245;48.136;13.428;2022-09-23T10:23:05;6.90;;;4.20;;
4464;SDS011;2245;48.136;13.428;2022-09-23T10:25:39;4.87;;;4.03;;
4464;SDS011;2245;48.136;13.428;2022-09-23T10:31:24;5.90;;;4.93;;
4464;SDS011;2245;48.136;13.428;2022-09-23T10:33:53;3.77;;;3.17;;
4464;SDS011;2245;48.136;13.428;2022-09-23T10:36:21;3.03;;;2.83;;
4464;SDS011;2245;48.136;13.428;2022-09-23T10:38:50;4.10;;;3.80;;
4464;SDS011;2245;48.136;13.428;2022-09-23T10:41:24;3.83;;;3.27;;
4464;SDS011;2245;48.136;13.428;2022-09-23T10:44:17;5.00;;;3.30;;
4464;SDS011;2245;48.136;13.428;2022-09-23T10:47:13;20.23;;;5.27;;
4464;SDS011;2245;48.136;13.428;2022-09-23T10:50:03;6.17;;;3.87;;
4464;SDS011;2245;48.136;13.428;2022-09-23T10:52:43;3.87;;;3.07;;
4464;SDS011;2245;48.136;13.428;2022-09-23T10:55:33;3.60;;;3.30;;
4464;SDS011;2245;48.136;13.428;2022-09-23T10:58:36;3.60;;;3.30;;
4464;SDS011;2245;48.136;13.428;2022-09-23T11:01:21;3.80;;;3.50;;
4464;SDS011;2245;48.136;13.428;2022-09-23T11:04:06;4.10;;;3.80;;
4464;SDS011;2245;48.136;13.428;2022-09-23T11:06:47;4.37;;;3.97;;
4464;SDS011;2245;48.136;13.428;2022-09-23T11:09:26;4.77;;;3.90;;
4464;SDS011;2245;48.136;13.428;2022-09-23T11:12:08;4.57;;;4.17;;
4464;SDS011;2245;48.136;13.428;2022-09-23T11:14:54;5.07;;;4.57;;
4464;SDS011;2245;48.136;13.428;2022-09-23T11:17:35;4.43;;;3.50;;
4464;SDS011;2245;48.136;13.428;2022-09-23T11:26:08;7.20;;;4.07;;
4464;SDS011;2245;48.136;13.428;2022-09-23T11:31:40;18.13;;;4.50;;
4464;SDS011;2245;48.136;13.428;2022-09-23T11:34:24;4.10;;;3.70;;
4464;SDS011;2245;48.136;13.428;2022-09-23T11:37:10;5.40;;;4.30;;
4464;SDS011;2245;48.136;13.428;2022-09-23T11:39:40;3.93;;;3.63;;
4464;SDS011;2245;48.136;13.428;2022-09-23T11:42:13;4.30;;;3.90;;
4464;SDS011;2245;48.136;13.428;2022-09-23T11:44:46;9.73;;;3.90;;
4464;SDS011;2245;48.136;13.428;2022-09-23T11:47:20;6.10;;;3.80;;
4464;SDS011;2245;48.136;13.428;2022-09-23T11:49:56;2.87;;;2.63;;
4464;SDS011;2245;48.136;13.428;2022-09-23T11:52:28;8.90;;;3.70;;
4464;SDS011;2245;48.136;13.428;2022-09-23T11:55:02;3.27;;;2.97;;
4464;SDS011;2245;48.136;13.428;2022-09-23T11:57:41;3.27;;;2.77;;
4464;SDS011;2245;48.136;13.428;2022-09-23T12:00:11;3.80;;;3.50;;
4464;SDS011;2245;48.136;13.428;2022-09-23T12:02:48;3.10;;;2.90;;
4464;SDS011;2245;48.136;13.428;2022-09-23T12:05:29;4.93;;;3.77;;
4464;SDS011;2245;48.136;13.428;2022-09-23T12:08:03;3.07;;;2.87;;
4464;SDS011;2245;48.136;13.428;2022-09-23T12:10:36;3.83;;;3.53;;
4464;SDS011;2245;48.136;13.428;2022-09-23T12:13:11;8.43;;;3.83;;
4464;SDS011;2245;48.136;13.428;2022-09-23T12:15:47;2.73;;;2.60;;
4464;SDS011;2245;48.136;13.428;2022-09-23T12:18:31;5.47;;;4.33;;
4464;SDS011;2245;48.136;13.428;2022-09-23T12:21:23;4.03;;;3.73;;
4464;SDS011;2245;48.136;13.428;2022-09-23T12:24:17;7.83;;;3.73;;
4464;SDS011;2245;48.136;13.428;2022-09-23T12:27:03;5.83;;;4.50;;
4464;SDS011;2245;48.136;13.428;2022-09-23T12:29:35;4.90;;;3.97;;
4464;SDS011;2245;48.136;13.428;2022-09-23T12:32:06;3.90;;;3.60;;
4464;SDS011;2245;48.136;13.428;2022-09-23T12:34:36;5.00;;;3.90;;
4464;SDS011;2245;48.136;13.428;2022-09-23T12:37:06;5.00;;;3.40;;
4464;SDS011;2245;48.136;13.428;2022-09-23T12:39:37;9.10;;;3.70;;
4464;SDS011;2245;48.136;13.428;2022-09-23T12:42:05;4.50;;;4.10;;
4464;SDS011;2245;48.136;13.428;2022-09-23T12:44:39;5.50;;;4.07;;
4464;SDS011;2245;48.136;13.428;2022-09-23T12:47:35;5.27;;;4.50;;
4464;SDS011;2245;48.136;13.428;2022-09-23T12:56:26;4.63;;;3.93;;
4464;SDS011;2245;48.136;13.428;2022-09-23T13:02:26;12.07;;;4.80;;
4464;SDS011;2245;48.136;13.428;2022-09-23T13:05:02;4.40;;;4.00;;
4464;SDS011;2245;48.136;13.428;2022-09-23T13:08:01;8.50;;;4.03;;
4464;SDS011;2245;48.136;13.428;2022-09-23T13:10:32;8.03;;;4.17;;
4464;SDS011;2245;48.136;13.428;2022-09-23T13:13:04;6.97;;;4.47;;
4464;SDS011;2245;48.136;13.428;2022-09-23T13:15:32;5.53;;;5.03;;
4464;SDS011;2245;48.136;13.428;2022-09-23T13:28:11;5.50;;;4.43;;
4464;SDS011;2245;48.136;13.428;2022-09-23T13:30:46;5.37;;;4.40;;
4464;SDS011;2245;48.136;13.428;2022-09-23T13:33:15;8.13;;;7.33;;
4464;SDS011;2245;48.136;13.428;2022-09-23T13:35:44;6.33;;;4.73;;
4464;SDS011;2245;48.136;13.428;2022-09-23T13:38:20;4.70;;;4.07;;
4464;SDS011;2245;48.136;13.428;2022-09-23T13:40:50;4.33;;;3.97;;
4464;SDS011;2245;48.136;13.428;2022-09-23T13:43:21;5.67;;;5.17;;
4464;SDS011;2245;48.136;13.428;2022-09-23T13:45:52;6.70;;;4.97;;
4464;SDS011;2245;48.136;13.428;2022-09-23T13:48:21;5.03;;;4.53;;
4464;SDS011;2245;48.136;13.428;2022-09-23T13:50:49;5.13;;;4.37;;
4464;SDS011;2245;48.136;13.428;2022-09-23T13:53:19;4.73;;;4.33;;
4464;SDS011;2245;48.136;13.428;2022-09-23T13:55:59;11.33;;;4.90;;
4464;SDS011;2245;48.136;13.428;2022-09-23T13:58:29;6.27;;;4.40;;
4464;SDS011;2245;48.136;13.428;2022-09-23T14:01:00;4.43;;;3.97;;
4464;SDS011;2245;48.136;13.428;2022-09-23T14:03:29;14.60;;;7.43;;
4464;SDS011;2245;48.136;13.428;2022-09-23T14:05:59;4.77;;;4.37;;
4464;SDS011;2245;48.136;13.428;2022-09-23T14:08:31;8.47;;;6.10;;
4464;SDS011;2245;48.136;13.428;2022-09-23T14:11:01;6.33;;;5.73;;
4464;SDS011;2245;48.136;13.428;2022-09-23T14:13:39;5.70;;;5.13;;
4464;SDS011;2245;48.136;13.428;2022-09-23T14:16:13;7.57;;;5.77;;
4464;SDS011;2245;48.136;13.428;2022-09-23T14:18:45;5.60;;;4.90;;
4464;SDS011;2245;48.136;13.428;2022-09-23T14:21:26;9.20;;;5.10;;
4464;SDS011;2245;48.136;13.428;2022-09-23T14:26:42;4.93;;;4.43;;
4464;SDS011;2245;48.136;13.428;2022-09-23T14:29:14;5.63;;;3.93;;
4464;SDS011;2245;48.136;13.428;2022-09-23T14:31:48;5.07;;;4.67;;
4464;SDS011;2245;48.136;13.428;2022-09-23T14:34:38;7.03;;;4.80;;
4464;SDS011;2245;48.136;13.428;2022-09-23T14:37:11;6.20;;;4.57;;
4464;SDS011;2245;48.136;13.428;2022-09-23T14:40:03;10.67;;;5.37;;
4464;SDS011;2245;48.136;13.428;2022-09-23T14:42:38;6.00;;;5.10;;
4464;SDS011;2245;48.136;13.428;2022-09-23T14:45:11;5.40;;;4.67;;
4464;SDS011;2245;48.136;13.428;2022-09-23T14:47:41;5.77;;;4.83;;
4464;SDS011;2245;48.136;13.428;2022-09-23T14:50:16;5.50;;;4.93;;
4464;SDS011;2245;48.136;13.428;2022-09-23T14:56:06;8.97;;;6.40;;
4464;SDS011;2245;48.136;13.428;2022-09-23T14:58:47;6.60;;;5.80;;
4464;SDS011;2245;48.136;13.428;2022-09-23T15:01:24;5.03;;;4.63;;
4464;SDS011;2245;48.136;13.428;2022-09-23T15:03:53;6.20;;;5.60;;
4464;SDS011;2245;48.136;13.428;2022-09-23T15:06:21;5.50;;;4.40;;
4464;SDS011;2245;48.136;13.428;2022-09-23T15:08:53;7.60;;;5.37;;
4464;SDS011;2245;48.136;13.428;2022-09-23T15:11:21;5.97;;;5.37;;
4464;SDS011;2245;48.136;13.428;2022-09-23T15:13:50;5.83;;;5.33;;
4464;SDS011;2245;48.136;13.428;2022-09-23T15:16:28;7.27;;;3.93;;
4464;SDS011;2245;48.136;13.428;2022-09-23T15:18:56;6.30;;;4.83;;
4464;SDS011;2245;48.136;13.428;2022-09-23T15:21:28;7.20;;;5.30;;
4464;SDS011;2245;48.136;13.428;2022-09-23T15:24:29;9.47;;;5.53;;
4464;SDS011;2245;48.136;13.428;2022-09-23T15:27:18;6.13;;;5.53;;
4464;SDS011;2245;48.136;13.428;2022-09-23T15:29:51;6.00;;;5.40;;
4464;SDS011;2245;48.136;13.428;2022-09-23T15:32:20;10.27;;;4.90;;
4464;SDS011;2245;48.136;13.428;2022-09-23T15:34:47;6.27;;;5.00;;
4464;SDS011;2245;48.136;13.428;2022-09-23T15:37:15;5.77;;;5.17;;
4464;SDS011;2245;48.136;13.428;2022-09-23T15:39:45;5.30;;;4.47;;
4464;SDS011;2245;48.136;13.428;2022-09-23T15:42:18;6.50;;;4.90;;
4464;SDS011;2245;48.136;13.428;2022-09-23T15:44:45;6.53;;;5.10;;
4464;SDS011;2245;48.136;13.428;2022-09-23T15:47:15;6.00;;;5.33;;
4464;SDS011;2245;48.136;13.428;2022-09-23T15:49:48;10.10;;;5.50;;
4464;SDS011;2245;48.136;13.428;2022-09-23T15:52:15;6.00;;;5.13;;
4464;SDS011;2245;48.136;13.428;2022-09-23T15:54:46;5.47;;;4.80;;
4464;SDS011;2245;48.136;13.428;2022-09-23T15:57:16;5.67;;;4.80;;
4464;SDS011;2245;48.136;13.428;2022-09-23T15:59:43;4.70;;;4.20;;
4464;SDS011;2245;48.136;13.428;2022-09-23T16:02:15;4.77;;;4.27;;
4464;SDS011;2245;48.136;13.428;2022-09-23T16:04:45;6.33;;;3.97;;
4464;SDS011;2245;48.136;13.428;2022-09-23T16:07:20;6.07;;;4.83;;
4464;SDS011;2245;48.136;13.428;2022-09-23T16:09:54;5.10;;;4.37;;
4464;SDS011;2245;48.136;13.428;2022-09-23T16:12:25;7.80;;;4.60;;
4464;SDS011;2245;48.136;13.428;2022-09-23T16:14:54;5.57;;;4.37;;
4464;SDS011;2245;48.136;13.428;2022-09-23T16:17:23;10.43;;;4.67;;
4464;SDS011;2245;48.136;13.428;2022-09-23T16:19:53;5.37;;;4.87;;
4464;SDS011;2245;48.136;13.428;2022-09-23T16:22:24;9.67;;;5.97;;
4464;SDS011;2245;48.136;13.428;2022-09-23T16:24:54;10.20;;;7.30;;
4464;SDS011;2245;48.136;13.428;2022-09-23T16:27:22;6.43;;;4.53;;
4464;SDS011;2245;48.136;13.428;2022-09-23T16:29:52;7.77;;;6.33;;
4464;SDS011;2245;48.136;13.428;2022-09-23T16:32:20;13.10;;;6.10;;
4464;SDS011;2245;48.136;13.428;2022-09-23T16:34:49;10.83;;;7.30;;
4464;SDS011;2245;48.136;13.428;2022-09-23T16:37:19;9.27;;;6.10;;
4464;SDS011;2245;48.136;13.428;2022-09-23T16:39:48;7.00;;;5.00;;
4464;SDS011;2245;48.136;13.428;2022-09-23T16:42:17;9.40;;;6.37;;
4464;SDS011;2245;48.136;13.428;2022-09-23T16:44:44;10.40;;;5.30;;
4464;SDS011;2245;48.136;13.428;2022-09-23T16:47:21;8.00;;;5.93;;
4464;SDS011;2245;48.136;13.428;2022-09-23T16:49:51;6.30;;;5.67;;
4464;SDS011;2245;48.136;13.428;2022-09-23T16:52:18;6.70;;;5.23;;
4464;SDS011;2245;48.136;13.428;2022-09-23T16:54:45;6.17;;;4.83;;
4464;SDS011;2245;48.136;13.428;2022-09-23T16:57:17;8.87;;;5.57;;
4464;SDS011;2245;48.136;13.428;2022-09-23T16:59:44;11.23;;;6.10;;
4464;SDS011;2245;48.136;13.428;2022-09-23T17:02:28;8.80;;;6.27;;
4464;SDS011;2245;48.136;13.428;2022-09-23T17:05:13;14.87;;;8.10;;
4464;SDS011;2245;48.136;13.428;2022-09-23T17:07:42;15.87;;;10.30;;
4464;SDS011;2245;48.136;13.428;2022-09-23T17:10:15;21.70;;;11.57;;
4464;SDS011;2245;48.136;13.428;2022-09-23T17:12:51;17.37;;;9.23;;
4464;SDS011;2245;48.136;13.428;2022-09-23T17:15:22;18.80;;;14.00;;
4464;SDS011;2245;48.136;13.428;2022-09-23T17:17:49;28.10;;;14.60;;
4464;SDS011;2245;48.136;13.428;2022-09-23T17:20:17;24.23;;;16.17;;
4464;SDS011;2245;48.136;13.428;2022-09-23T17:22:52;37.23;;;19.27;;
4464;SDS011;2245;48.136;13.428;2022-09-23T17:25:21;39.87;;;22.03;;
4464;SDS011;2245;48.136;13.428;2022-09-23T17:27:54;24.30;;;13.20;;
4464;SDS011;2245;48.136;13.428;2022-09-23T17:30:22;28.27;;;16.53;;
4464;SDS011;2245;48.136;13.428;2022-09-23T17:32:52;17.73;;;10.00;;
4464;SDS011;2245;48.136;13.428;2022-09-23T17:35:22;16.13;;;12.13;;
4464;SDS011;2245;48.136;13.428;2022-09-23T17:37:51;14.57;;;9.50;;
4464;SDS011;2245;48.136;13.428;2022-09-23T17:40:18;14.60;;;8.73;;
4464;SDS011;2245;48.136;13.428;2022-09-23T17:42:57;24.50;;;13.97;;
4464;SDS011;2245;48.136;13.428;2022-09-23T17:45:24;12.93;;;11.30;;
4464;SDS011;2245;48.136;13.428;2022-09-23T17:47:53;19.67;;;13.67;;
4464;SDS011;2245;48.136;13.428;2022-09-23T17:50:20;38.60;;;24.33;;
4464;SDS011;2245;48.136;13.428;2022-09-23T17:52:51;13.37;;;9.80;;
4464;SDS011;2245;48.136;13.428;2022-09-23T17:55:19;12.63;;;10.17;;
4464;SDS011;2245;48.136;13.428;2022-09-23T17:57:49;16.03;;;11.30;;
4464;SDS011;2245;48.136;13.428;2022-09-23T18:00:18;9.53;;;7.47;;